sensor_id;sensor_type;location;lat;lon;timestamp;P1;durP1;ratioP1;P2;durP2;ratioP2
12127;SDS011;6127;57.702;11.904;2023-05-10T00:00:40;0.20;;;0.20;;
12127;SDS011;6127;57.702;11.904;2023-05-10T00:03:06;0.40;;;0.40;;
12127;SDS011;6127;57.702;11.904;2023-05-10T00:05:32;0.40;;;0.40;;
12127;SDS011;6127;57.702;11.904;2023-05-10T00:07:58;0.30;;;0.30;;
12127;SDS011;6127;57.702;11.904;2023-05-10T00:10:24;0.30;;;0.30;;
12127;SDS011;6127;57.702;11.904;2023-05-10T00:12:50;0.10;;;0.10;;
12127;SDS011;6127;57.702;11.904;2023-05-10T00:15:16;0.20;;;0.20;;
12127;SDS011;6127;57.702;11.904;2023-05-10T00:17:42;0.40;;;0.40;;
12127;SDS011;6127;57.702;11.904;2023-05-10T00:20:08;0.40;;;0.40;;
12127;SDS011;6127;57.702;11.904;2023-05-10T00:22:34;0.30;;;0.30;;
12127;SDS011;6127;57.702;11.904;2023-05-10T00:25:00;0.30;;;0.30;;
12127;SDS011;6127;57.702;11.904;2023-05-10T00:27:26;0.30;;;0.30;;
12127;SDS011;6127;57.702;11.904;2023-05-10T00:32:30;0.40;;;0.40;;
12127;SDS011;6127;57.702;11.904;2023-05-10T00:34:56;0.40;;;0.40;;
12127;SDS011;6127;57.702;11.904;2023-05-10T00:37:22;0.40;;;0.40;;
12127;SDS011;6127;57.702;11.904;2023-05-10T00:39:48;0.30;;;0.30;;
12127;SDS011;6127;57.702;11.904;2023-05-10T00:42:14;0.30;;;0.30;;
12127;SDS011;6127;57.702;11.904;2023-05-10T00:44:40;0.30;;;0.30;;
12127;SDS011;6127;57.702;11.904;2023-05-10T01:02:44;0.28;;;0.28;;
12127;SDS011;6127;57.702;11.904;2023-05-10T01:05:11;0.40;;;0.40;;
12127;SDS011;6127;57.702;11.904;2023-05-10T01:07:37;0.40;;;0.40;;
12127;SDS011;6127;57.702;11.904;2023-05-10T01:10:03;0.40;;;0.40;;
12127;SDS011;6127;57.702;11.904;2023-05-10T01:12:29;0.40;;;0.40;;
12127;SDS011;6127;57.702;11.904;2023-05-10T01:14:55;0.30;;;0.30;;
12127;SDS011;6127;57.702;11.904;2023-05-10T01:17:22;0.30;;;0.30;;
12127;SDS011;6127;57.702;11.904;2023-05-10T01:19:48;0.30;;;0.30;;
12127;SDS011;6127;57.702;11.904;2023-05-10T01:25:11;0.30;;;0.30;;
12127;SDS011;6127;57.702;11.904;2023-05-10T01:35:26;0.30;;;0.30;;
12127;SDS011;6127;57.702;11.904;2023-05-10T01:40:37;0.20;;;0.20;;
12127;SDS011;6127;57.702;11.904;2023-05-10T01:43:07;0.28;;;0.28;;
12127;SDS011;6127;57.702;11.904;2023-05-10T01:48:11;0.50;;;0.50;;
12127;SDS011;6127;57.702;11.904;2023-05-10T01:50:41;0.40;;;0.40;;
12127;SDS011;6127;57.702;11.904;2023-05-10T01:53:09;0.40;;;0.40;;
12127;SDS011;6127;57.702;11.904;2023-05-10T01:55:39;0.40;;;0.40;;
12127;SDS011;6127;57.702;11.904;2023-05-10T01:58:09;0.30;;;0.30;;
12127;SDS011;6127;57.702;11.904;2023-05-10T02:03:07;0.20;;;0.20;;
12127;SDS011;6127;57.702;11.904;2023-05-10T02:05:34;0.20;;;0.20;;
12127;SDS011;6127;57.702;11.904;2023-05-10T02:08:01;0.20;;;0.20;;
12127;SDS011;6127;57.702;11.904;2023-05-10T02:10:28;0.28;;;0.28;;
12127;SDS011;6127;57.702;11.904;2023-05-10T02:12:55;0.30;;;0.30;;
12127;SDS011;6127;57.702;11.904;2023-05-10T02:46:33;0.40;;;0.40;;
12127;SDS011;6127;57.702;11.904;2023-05-10T02:49:00;0.40;;;0.40;;
12127;SDS011;6127;57.702;11.904;2023-05-10T02:51:27;0.40;;;0.40;;
12127;SDS011;6127;57.702;11.904;2023-05-10T02:53:54;0.30;;;0.30;;
12127;SDS011;6127;57.702;11.904;2023-05-10T02:56:25;0.30;;;0.30;;
12127;SDS011;6127;57.702;11.904;2023-05-10T02:58:51;0.30;;;0.30;;
12127;SDS011;6127;57.702;11.904;2023-05-10T03:01:17;0.30;;;0.30;;
12127;SDS011;6127;57.702;11.904;2023-05-10T03:03:44;0.20;;;0.20;;
12127;SDS011;6127;57.702;11.904;2023-05-10T03:06:09;0.20;;;0.20;;
12127;SDS011;6127;57.702;11.904;2023-05-10T03:08:35;0.20;;;0.20;;
12127;SDS011;6127;57.702;11.904;2023-05-10T03:11:09;0.20;;;0.20;;
12127;SDS011;6127;57.702;11.904;2023-05-10T03:13:48;0.30;;;0.30;;
12127;SDS011;6127;57.702;11.904;2023-05-10T03:16:16;0.40;;;0.40;;
12127;SDS011;6127;57.702;11.904;2023-05-10T03:21:11;0.40;;;0.40;;
12127;SDS011;6127;57.702;11.904;2023-05-10T03:23:43;0.40;;;0.40;;
12127;SDS011;6127;57.702;11.904;2023-05-10T03:26:09;0.32;;;0.32;;
12127;SDS011;6127;57.702;11.904;2023-05-10T03:28:35;0.30;;;0.30;;
12127;SDS011;6127;57.702;11.904;2023-05-10T03:31:02;0.30;;;0.30;;
12127;SDS011;6127;57.702;11.904;2023-05-10T03:33:30;0.30;;;0.30;;
12127;SDS011;6127;57.702;11.904;2023-05-10T03:35:57;0.28;;;0.28;;
12127;SDS011;6127;57.702;11.904;2023-05-10T03:38:23;0.30;;;0.30;;
12127;SDS011;6127;57.702;11.904;2023-05-10T03:40:49;0.20;;;0.20;;
12127;SDS011;6127;57.702;11.904;2023-05-10T03:43:15;0.20;;;0.20;;
12127;SDS011;6127;57.702;11.904;2023-05-10T03:48:07;0.40;;;0.40;;
12127;SDS011;6127;57.702;11.904;2023-05-10T03:50:33;0.40;;;0.40;;
12127;SDS011;6127;57.702;11.904;2023-05-10T03:52:59;0.47;;;0.47;;
12127;SDS011;6127;57.702;11.904;2023-05-10T03:55:25;0.40;;;0.40;;
12127;SDS011;6127;57.702;11.904;2023-05-10T03:57:51;0.40;;;0.40;;
12127;SDS011;6127;57.702;11.904;2023-05-10T04:02:55;0.30;;;0.30;;
12127;SDS011;6127;57.702;11.904;2023-05-10T04:05:21;0.30;;;0.30;;
12127;SDS011;6127;57.702;11.904;2023-05-10T04:07:47;0.30;;;0.30;;
12127;SDS011;6127;57.702;11.904;2023-05-10T04:10:14;0.30;;;0.30;;
12127;SDS011;6127;57.702;11.904;2023-05-10T04:12:41;0.20;;;0.20;;
12127;SDS011;6127;57.702;11.904;2023-05-10T04:15:07;0.20;;;0.20;;
12127;SDS011;6127;57.702;11.904;2023-05-10T04:17:33;0.40;;;0.40;;
12127;SDS011;6127;57.702;11.904;2023-05-10T04:19:59;0.40;;;0.40;;
12127;SDS011;6127;57.702;11.904;2023-05-10T04:22:25;0.40;;;0.40;;
12127;SDS011;6127;57.702;11.904;2023-05-10T04:24:52;0.30;;;0.30;;
12127;SDS011;6127;57.702;11.904;2023-05-10T04:27:18;0.30;;;0.30;;
12127;SDS011;6127;57.702;11.904;2023-05-10T04:29:44;0.40;;;0.40;;
12127;SDS011;6127;57.702;11.904;2023-05-10T04:32:10;0.30;;;0.30;;
12127;SDS011;6127;57.702;11.904;2023-05-10T04:34:36;0.30;;;0.30;;
12127;SDS011;6127;57.702;11.904;2023-05-10T04:37:02;0.22;;;0.22;;
12127;SDS011;6127;57.702;11.904;2023-05-10T04:39:28;0.20;;;0.20;;
12127;SDS011;6127;57.702;11.904;2023-05-10T04:41:54;0.30;;;0.30;;
12127;SDS011;6127;57.702;11.904;2023-05-10T04:44:20;0.38;;;0.38;;
12127;SDS011;6127;57.702;11.904;2023-05-10T04:46:46;0.40;;;0.40;;
12127;SDS011;6127;57.702;11.904;2023-05-10T04:49:12;0.40;;;0.40;;
12127;SDS011;6127;57.702;11.904;2023-05-10T04:51:39;0.30;;;0.30;;
12127;SDS011;6127;57.702;11.904;2023-05-10T04:54:05;0.40;;;0.40;;
12127;SDS011;6127;57.702;11.904;2023-05-10T04:56:31;0.30;;;0.30;;
12127;SDS011;6127;57.702;11.904;2023-05-10T04:58:57;0.30;;;0.30;;
12127;SDS011;6127;57.702;11.904;2023-05-10T05:01:23;0.20;;;0.20;;
12127;SDS011;6127;57.702;11.904;2023-05-10T05:03:49;0.28;;;0.28;;
12127;SDS011;6127;57.702;11.904;2023-05-10T05:06:15;0.40;;;0.40;;
12127;SDS011;6127;57.702;11.904;2023-05-10T05:08:41;0.50;;;0.50;;
12127;SDS011;6127;57.702;11.904;2023-05-10T05:11:07;0.40;;;0.40;;
12127;SDS011;6127;57.702;11.904;2023-05-10T05:13:33;0.30;;;0.30;;
12127;SDS011;6127;57.702;11.904;2023-05-10T05:16:00;0.30;;;0.30;;
12127;SDS011;6127;57.702;11.904;2023-05-10T05:18:26;0.20;;;0.20;;
12127;SDS011;6127;57.702;11.904;2023-05-10T05:20:52;0.23;;;0.23;;
12127;SDS011;6127;57.702;11.904;2023-05-10T05:23:18;0.40;;;0.40;;
12127;SDS011;6127;57.702;11.904;2023-05-10T05:25:45;0.40;;;0.40;;
12127;SDS011;6127;57.702;11.904;2023-05-10T05:28:11;0.30;;;0.30;;
12127;SDS011;6127;57.702;11.904;2023-05-10T05:33:14;0.20;;;0.20;;
12127;SDS011;6127;57.702;11.904;2023-05-10T05:35:40;0.45;;;0.45;;
12127;SDS011;6127;57.702;11.904;2023-05-10T05:38:07;0.30;;;0.30;;
12127;SDS011;6127;57.702;11.904;2023-05-10T05:40:33;0.30;;;0.30;;
12127;SDS011;6127;57.702;11.904;2023-05-10T05:42:59;0.20;;;0.20;;
12127;SDS011;6127;57.702;11.904;2023-05-10T06:03:42;0.30;;;0.30;;
12127;SDS011;6127;57.702;11.904;2023-05-10T06:06:08;0.40;;;0.40;;
12127;SDS011;6127;57.702;11.904;2023-05-10T06:08:34;0.30;;;0.30;;
12127;SDS011;6127;57.702;11.904;2023-05-10T06:11:00;0.20;;;0.20;;
12127;SDS011;6127;57.702;11.904;2023-05-10T06:13:26;0.20;;;0.20;;
12127;SDS011;6127;57.702;11.904;2023-05-10T06:16:00;0.40;;;0.40;;
12127;SDS011;6127;57.702;11.904;2023-05-10T06:18:26;0.30;;;0.30;;
12127;SDS011;6127;57.702;11.904;2023-05-10T06:20:52;0.20;;;0.20;;
12127;SDS011;6127;57.702;11.904;2023-05-10T06:23:18;0.30;;;0.30;;
12127;SDS011;6127;57.702;11.904;2023-05-10T06:25:44;0.40;;;0.40;;
12127;SDS011;6127;57.702;11.904;2023-05-10T06:28:10;0.20;;;0.20;;
12127;SDS011;6127;57.702;11.904;2023-05-10T06:30:36;0.10;;;0.10;;
12127;SDS011;6127;57.702;11.904;2023-05-10T06:33:02;0.40;;;0.40;;
12127;SDS011;6127;57.702;11.904;2023-05-10T06:35:28;0.30;;;0.30;;
12127;SDS011;6127;57.702;11.904;2023-05-10T06:37:54;0.20;;;0.20;;
12127;SDS011;6127;57.702;11.904;2023-05-10T06:40:20;0.20;;;0.20;;
12127;SDS011;6127;57.702;11.904;2023-05-10T06:42:47;0.30;;;0.30;;
12127;SDS011;6127;57.702;11.904;2023-05-10T06:45:13;0.10;;;0.10;;
12127;SDS011;6127;57.702;11.904;2023-05-10T06:55:27;0.20;;;0.20;;
12127;SDS011;6127;57.702;11.904;2023-05-10T06:57:54;0.20;;;0.20;;
12127;SDS011;6127;57.702;11.904;2023-05-10T07:00:20;0.30;;;0.30;;
12127;SDS011;6127;57.702;11.904;2023-05-10T07:02:46;0.20;;;0.20;;
12127;SDS011;6127;57.702;11.904;2023-05-10T07:05:12;0.30;;;0.30;;
12127;SDS011;6127;57.702;11.904;2023-05-10T07:07:39;0.30;;;0.30;;
12127;SDS011;6127;57.702;11.904;2023-05-10T07:10:05;0.20;;;0.20;;
12127;SDS011;6127;57.702;11.904;2023-05-10T07:12:32;0.30;;;0.30;;
12127;SDS011;6127;57.702;11.904;2023-05-10T07:14:58;0.10;;;0.10;;
12127;SDS011;6127;57.702;11.904;2023-05-10T07:17:24;0.30;;;0.30;;
12127;SDS011;6127;57.702;11.904;2023-05-10T07:19:50;0.20;;;0.20;;
12127;SDS011;6127;57.702;11.904;2023-05-10T07:22:16;0.30;;;0.30;;
12127;SDS011;6127;57.702;11.904;2023-05-10T07:24:42;0.30;;;0.30;;
12127;SDS011;6127;57.702;11.904;2023-05-10T07:27:08;0.20;;;0.20;;
12127;SDS011;6127;57.702;11.904;2023-05-10T07:29:35;0.30;;;0.30;;
12127;SDS011;6127;57.702;11.904;2023-05-10T07:32:02;0.20;;;0.20;;
12127;SDS011;6127;57.702;11.904;2023-05-10T07:34:28;0.30;;;0.30;;
12127;SDS011;6127;57.702;11.904;2023-05-10T07:36:55;0.20;;;0.20;;
12127;SDS011;6127;57.702;11.904;2023-05-10T07:39:21;0.30;;;0.30;;
12127;SDS011;6127;57.702;11.904;2023-05-10T07:41:47;0.10;;;0.10;;
12127;SDS011;6127;57.702;11.904;2023-05-10T07:44:13;0.30;;;0.30;;
12127;SDS011;6127;57.702;11.904;2023-05-10T08:04:42;0.30;;;0.30;;
12127;SDS011;6127;57.702;11.904;2023-05-10T08:07:08;0.10;;;0.10;;
12127;SDS011;6127;57.702;11.904;2023-05-10T08:09:34;0.30;;;0.30;;
12127;SDS011;6127;57.702;11.904;2023-05-10T08:12:00;0.20;;;0.20;;
12127;SDS011;6127;57.702;11.904;2023-05-10T08:14:27;0.20;;;0.20;;
12127;SDS011;6127;57.702;11.904;2023-05-10T08:16:54;0.30;;;0.30;;
12127;SDS011;6127;57.702;11.904;2023-05-10T08:19:20;0.20;;;0.20;;
12127;SDS011;6127;57.702;11.904;2023-05-10T08:21:47;0.17;;;0.17;;
12127;SDS011;6127;57.702;11.904;2023-05-10T08:24:13;0.30;;;0.30;;
12127;SDS011;6127;57.702;11.904;2023-05-10T08:26:39;0.20;;;0.20;;
12127;SDS011;6127;57.702;11.904;2023-05-10T08:29:05;0.10;;;0.10;;
12127;SDS011;6127;57.702;11.904;2023-05-10T08:31:31;0.20;;;0.20;;
12127;SDS011;6127;57.702;11.904;2023-05-10T08:33:57;0.30;;;0.30;;
12127;SDS011;6127;57.702;11.904;2023-05-10T08:36:23;0.20;;;0.20;;
12127;SDS011;6127;57.702;11.904;2023-05-10T08:38:52;0.10;;;0.10;;
12127;SDS011;6127;57.702;11.904;2023-05-10T08:41:22;0.10;;;0.10;;
12127;SDS011;6127;57.702;11.904;2023-05-10T08:43:51;0.13;;;0.13;;
12127;SDS011;6127;57.702;11.904;2023-05-10T08:48:54;0.30;;;0.30;;
12127;SDS011;6127;57.702;11.904;2023-05-10T08:51:22;0.20;;;0.20;;
12127;SDS011;6127;57.702;11.904;2023-05-10T08:53:50;0.20;;;0.20;;
12127;SDS011;6127;57.702;11.904;2023-05-10T08:56:16;0.20;;;0.20;;
12127;SDS011;6127;57.702;11.904;2023-05-10T08:58:42;0.10;;;0.10;;
12127;SDS011;6127;57.702;11.904;2023-05-10T09:03:48;0.10;;;0.10;;
12127;SDS011;6127;57.702;11.904;2023-05-10T09:06:15;0.10;;;0.10;;
12127;SDS011;6127;57.702;11.904;2023-05-10T09:08:41;0.10;;;0.10;;
12127;SDS011;6127;57.702;11.904;2023-05-10T09:11:08;0.10;;;0.10;;
12127;SDS011;6127;57.702;11.904;2023-05-10T09:13:35;0.10;;;0.10;;
12127;SDS011;6127;57.702;11.904;2023-05-10T09:16:02;0.10;;;0.10;;
12127;SDS011;6127;57.702;11.904;2023-05-10T09:18:28;0.10;;;0.10;;
12127;SDS011;6127;57.702;11.904;2023-05-10T09:20:55;0.10;;;0.10;;
12127;SDS011;6127;57.702;11.904;2023-05-10T09:23:20;0.10;;;0.10;;
12127;SDS011;6127;57.702;11.904;2023-05-10T09:25:47;0.10;;;0.10;;
12127;SDS011;6127;57.702;11.904;2023-05-10T09:28:13;0.10;;;0.10;;
12127;SDS011;6127;57.702;11.904;2023-05-10T09:30:39;0.10;;;0.10;;
12127;SDS011;6127;57.702;11.904;2023-05-10T09:48:46;0.10;;;0.10;;
12127;SDS011;6127;57.702;11.904;2023-05-10T09:51:22;0.10;;;0.10;;
12127;SDS011;6127;57.702;11.904;2023-05-10T09:53:50;0.10;;;0.10;;
12127;SDS011;6127;57.702;11.904;2023-05-10T09:56:34;0.10;;;0.10;;
12127;SDS011;6127;57.702;11.904;2023-05-10T09:59:04;0.10;;;0.10;;
12127;SDS011;6127;57.702;11.904;2023-05-10T10:03:58;0.10;;;0.10;;
12127;SDS011;6127;57.702;11.904;2023-05-10T10:06:25;0.10;;;0.10;;
12127;SDS011;6127;57.702;11.904;2023-05-10T10:08:51;0.10;;;0.10;;
12127;SDS011;6127;57.702;11.904;2023-05-10T10:11:18;0.08;;;0.08;;
12127;SDS011;6127;57.702;11.904;2023-05-10T10:13:44;0.10;;;0.10;;
12127;SDS011;6127;57.702;11.904;2023-05-10T10:18:53;0.08;;;0.08;;
12127;SDS011;6127;57.702;11.904;2023-05-10T10:21:19;0.00;;;0.00;;
12127;SDS011;6127;57.702;11.904;2023-05-10T10:23:45;0.00;;;0.00;;
12127;SDS011;6127;57.702;11.904;2023-05-10T10:26:11;0.10;;;0.10;;
12127;SDS011;6127;57.702;11.904;2023-05-10T10:34:05;0.05;;;0.05;;
12127;SDS011;6127;57.702;11.904;2023-05-10T10:36:32;0.00;;;0.00;;
12127;SDS011;6127;57.702;11.904;2023-05-10T10:39:01;0.10;;;0.10;;
12127;SDS011;6127;57.702;11.904;2023-05-10T10:41:30;0.10;;;0.10;;
12127;SDS011;6127;57.702;11.904;2023-05-10T10:49:25;0.00;;;0.00;;
12127;SDS011;6127;57.702;11.904;2023-05-10T10:54:36;0.10;;;0.10;;
12127;SDS011;6127;57.702;11.904;2023-05-10T10:57:12;0.05;;;0.05;;
12127;SDS011;6127;57.702;11.904;2023-05-10T10:59:42;0.10;;;0.10;;
12127;SDS011;6127;57.702;11.904;2023-05-10T11:04:55;0.00;;;0.00;;
12127;SDS011;6127;57.702;11.904;2023-05-10T11:07:22;0.10;;;0.10;;
12127;SDS011;6127;57.702;11.904;2023-05-10T11:09:48;0.10;;;0.10;;
12127;SDS011;6127;57.702;11.904;2023-05-10T11:12:14;0.00;;;0.00;;
12127;SDS011;6127;57.702;11.904;2023-05-10T11:14:40;0.00;;;0.00;;
12127;SDS011;6127;57.702;11.904;2023-05-10T11:17:26;0.00;;;0.00;;
12127;SDS011;6127;57.702;11.904;2023-05-10T11:20:06;0.10;;;0.10;;
12127;SDS011;6127;57.702;11.904;2023-05-10T11:22:55;0.10;;;0.10;;
12127;SDS011;6127;57.702;11.904;2023-05-10T11:25:26;0.10;;;0.10;;
12127;SDS011;6127;57.702;11.904;2023-05-10T11:27:53;0.00;;;0.00;;
12127;SDS011;6127;57.702;11.904;2023-05-10T11:30:19;0.00;;;0.00;;
12127;SDS011;6127;57.702;11.904;2023-05-10T11:32:45;0.10;;;0.10;;
12127;SDS011;6127;57.702;11.904;2023-05-10T11:35:11;0.00;;;0.00;;
12127;SDS011;6127;57.702;11.904;2023-05-10T11:37:40;0.00;;;0.00;;
12127;SDS011;6127;57.702;11.904;2023-05-10T11:40:08;0.00;;;0.00;;
12127;SDS011;6127;57.702;11.904;2023-05-10T11:42:38;0.08;;;0.08;;
12127;SDS011;6127;57.702;11.904;2023-05-10T11:45:04;0.10;;;0.10;;
12127;SDS011;6127;57.702;11.904;2023-05-10T11:47:31;0.00;;;0.00;;
12127;SDS011;6127;57.702;11.904;2023-05-10T11:49:57;0.00;;;0.00;;
12127;SDS011;6127;57.702;11.904;2023-05-10T11:52:23;0.10;;;0.10;;
12127;SDS011;6127;57.702;11.904;2023-05-10T11:54:53;0.00;;;0.00;;
12127;SDS011;6127;57.702;11.904;2023-05-10T11:57:19;0.10;;;0.10;;
12127;SDS011;6127;57.702;11.904;2023-05-10T11:59:46;0.10;;;0.10;;
12127;SDS011;6127;57.702;11.904;2023-05-10T12:02:13;0.00;;;0.00;;
12127;SDS011;6127;57.702;11.904;2023-05-10T12:04:39;0.10;;;0.10;;
12127;SDS011;6127;57.702;11.904;2023-05-10T12:07:05;0.10;;;0.10;;
12127;SDS011;6127;57.702;11.904;2023-05-10T12:09:31;0.10;;;0.10;;
12127;SDS011;6127;57.702;11.904;2023-05-10T12:11:57;0.10;;;0.10;;
12127;SDS011;6127;57.702;11.904;2023-05-10T12:14:23;0.10;;;0.10;;
12127;SDS011;6127;57.702;11.904;2023-05-10T12:16:49;0.00;;;0.00;;
12127;SDS011;6127;57.702;11.904;2023-05-10T12:19:19;0.00;;;0.00;;
12127;SDS011;6127;57.702;11.904;2023-05-10T12:21:46;0.00;;;0.00;;
12127;SDS011;6127;57.702;11.904;2023-05-10T12:24:12;0.10;;;0.10;;
12127;SDS011;6127;57.702;11.904;2023-05-10T12:26:41;0.10;;;0.10;;
12127;SDS011;6127;57.702;11.904;2023-05-10T12:29:17;0.00;;;0.00;;
12127;SDS011;6127;57.702;11.904;2023-05-10T12:34:25;0.10;;;0.10;;
12127;SDS011;6127;57.702;11.904;2023-05-10T12:36:51;0.03;;;0.03;;
12127;SDS011;6127;57.702;11.904;2023-05-10T12:39:17;0.10;;;0.10;;
12127;SDS011;6127;57.702;11.904;2023-05-10T12:41:43;0.00;;;0.00;;
12127;SDS011;6127;57.702;11.904;2023-05-10T12:44:09;0.00;;;0.00;;
12127;SDS011;6127;57.702;11.904;2023-05-10T12:46:35;0.10;;;0.10;;
12127;SDS011;6127;57.702;11.904;2023-05-10T13:02:00;0.10;;;0.10;;
12127;SDS011;6127;57.702;11.904;2023-05-10T13:04:27;0.10;;;0.10;;
12127;SDS011;6127;57.702;11.904;2023-05-10T13:06:53;0.10;;;0.10;;
12127;SDS011;6127;57.702;11.904;2023-05-10T13:09:21;0.00;;;0.00;;
12127;SDS011;6127;57.702;11.904;2023-05-10T13:11:47;0.00;;;0.00;;
12127;SDS011;6127;57.702;11.904;2023-05-10T13:14:14;0.05;;;0.05;;
12127;SDS011;6127;57.702;11.904;2023-05-10T13:19:09;0.10;;;0.10;;
12127;SDS011;6127;57.702;11.904;2023-05-10T13:21:36;0.10;;;0.10;;
12127;SDS011;6127;57.702;11.904;2023-05-10T13:24:02;0.10;;;0.10;;
12127;SDS011;6127;57.702;11.904;2023-05-10T13:26:28;0.10;;;0.10;;
12127;SDS011;6127;57.702;11.904;2023-05-10T13:28:54;0.10;;;0.10;;
12127;SDS011;6127;57.702;11.904;2023-05-10T13:31:20;0.10;;;0.10;;
12127;SDS011;6127;57.702;11.904;2023-05-10T13:33:46;0.10;;;0.10;;
12127;SDS011;6127;57.702;11.904;2023-05-10T13:36:12;0.10;;;0.10;;
12127;SDS011;6127;57.702;11.904;2023-05-10T13:38:39;0.10;;;0.10;;
12127;SDS011;6127;57.702;11.904;2023-05-10T13:41:10;0.03;;;0.03;;
12127;SDS011;6127;57.702;11.904;2023-05-10T13:43:36;0.03;;;0.03;;
12127;SDS011;6127;57.702;11.904;2023-05-10T13:46:02;0.10;;;0.10;;
12127;SDS011;6127;57.702;11.904;2023-05-10T13:48:28;0.10;;;0.10;;
12127;SDS011;6127;57.702;11.904;2023-05-10T13:50:54;0.10;;;0.10;;
12127;SDS011;6127;57.702;11.904;2023-05-10T13:53:20;0.10;;;0.10;;
12127;SDS011;6127;57.702;11.904;2023-05-10T13:55:46;0.10;;;0.10;;
12127;SDS011;6127;57.702;11.904;2023-05-10T13:58:12;0.10;;;0.10;;
12127;SDS011;6127;57.702;11.904;2023-05-10T14:00:38;0.10;;;0.10;;
12127;SDS011;6127;57.702;11.904;2023-05-10T14:03:04;0.10;;;0.10;;
12127;SDS011;6127;57.702;11.904;2023-05-10T14:05:31;0.10;;;0.10;;
12127;SDS011;6127;57.702;11.904;2023-05-10T14:07:57;0.00;;;0.00;;
12127;SDS011;6127;57.702;11.904;2023-05-10T14:10:23;0.10;;;0.10;;
12127;SDS011;6127;57.702;11.904;2023-05-10T14:12:50;0.10;;;0.10;;
12127;SDS011;6127;57.702;11.904;2023-05-10T14:15:16;0.10;;;0.10;;
12127;SDS011;6127;57.702;11.904;2023-05-10T14:17:42;0.10;;;0.10;;
12127;SDS011;6127;57.702;11.904;2023-05-10T14:20:08;0.10;;;0.10;;
12127;SDS011;6127;57.702;11.904;2023-05-10T14:22:34;0.10;;;0.10;;
12127;SDS011;6127;57.702;11.904;2023-05-10T14:25:00;0.00;;;0.00;;
12127;SDS011;6127;57.702;11.904;2023-05-10T14:27:26;0.10;;;0.10;;
12127;SDS011;6127;57.702;11.904;2023-05-10T14:29:52;0.10;;;0.10;;
12127;SDS011;6127;57.702;11.904;2023-05-10T14:34:47;0.00;;;0.00;;
12127;SDS011;6127;57.702;11.904;2023-05-10T14:37:13;0.05;;;0.05;;
12127;SDS011;6127;57.702;11.904;2023-05-10T14:39:40;0.10;;;0.10;;
12127;SDS011;6127;57.702;11.904;2023-05-10T14:42:07;0.05;;;0.05;;
12127;SDS011;6127;57.702;11.904;2023-05-10T14:44:33;0.10;;;0.10;;
12127;SDS011;6127;57.702;11.904;2023-05-10T14:46:59;0.10;;;0.10;;
12127;SDS011;6127;57.702;11.904;2023-05-10T14:49:25;0.10;;;0.10;;
12127;SDS011;6127;57.702;11.904;2023-05-10T14:51:52;0.10;;;0.10;;
12127;SDS011;6127;57.702;11.904;2023-05-10T14:54:18;0.10;;;0.10;;
12127;SDS011;6127;57.702;11.904;2023-05-10T14:56:44;0.10;;;0.10;;
12127;SDS011;6127;57.702;11.904;2023-05-10T14:59:10;0.10;;;0.10;;
12127;SDS011;6127;57.702;11.904;2023-05-10T15:01:36;0.10;;;0.10;;
12127;SDS011;6127;57.702;11.904;2023-05-10T15:04:03;0.10;;;0.10;;
12127;SDS011;6127;57.702;11.904;2023-05-10T15:06:32;0.10;;;0.10;;
12127;SDS011;6127;57.702;11.904;2023-05-10T15:08:59;0.10;;;0.10;;
12127;SDS011;6127;57.702;11.904;2023-05-10T15:11:25;0.20;;;0.20;;
12127;SDS011;6127;57.702;11.904;2023-05-10T15:13:51;0.10;;;0.10;;
12127;SDS011;6127;57.702;11.904;2023-05-10T15:16:17;0.20;;;0.20;;
12127;SDS011;6127;57.702;11.904;2023-05-10T15:18:43;0.10;;;0.10;;
12127;SDS011;6127;57.702;11.904;2023-05-10T15:21:09;0.10;;;0.10;;
12127;SDS011;6127;57.702;11.904;2023-05-10T15:23:35;0.20;;;0.20;;
12127;SDS011;6127;57.702;11.904;2023-05-10T15:26:02;0.10;;;0.10;;
12127;SDS011;6127;57.702;11.904;2023-05-10T15:28:28;0.20;;;0.20;;
12127;SDS011;6127;57.702;11.904;2023-05-10T15:30:54;0.10;;;0.10;;
12127;SDS011;6127;57.702;11.904;2023-05-10T15:33:21;0.20;;;0.20;;
12127;SDS011;6127;57.702;11.904;2023-05-10T15:35:47;0.10;;;0.10;;
12127;SDS011;6127;57.702;11.904;2023-05-10T15:38:13;0.20;;;0.20;;
12127;SDS011;6127;57.702;11.904;2023-05-10T15:40:39;0.10;;;0.10;;
12127;SDS011;6127;57.702;11.904;2023-05-10T15:43:05;0.10;;;0.10;;
12127;SDS011;6127;57.702;11.904;2023-05-10T15:45:31;0.17;;;0.17;;
12127;SDS011;6127;57.702;11.904;2023-05-10T15:47:57;0.10;;;0.10;;
12127;SDS011;6127;57.702;11.904;2023-05-10T15:50:26;0.10;;;0.10;;
12127;SDS011;6127;57.702;11.904;2023-05-10T15:52:52;0.10;;;0.10;;
12127;SDS011;6127;57.702;11.904;2023-05-10T15:55:18;0.20;;;0.20;;
12127;SDS011;6127;57.702;11.904;2023-05-10T15:57:44;0.10;;;0.10;;
12127;SDS011;6127;57.702;11.904;2023-05-10T16:00:11;0.20;;;0.20;;
12127;SDS011;6127;57.702;11.904;2023-05-10T16:05:13;0.20;;;0.20;;
12127;SDS011;6127;57.702;11.904;2023-05-10T16:07:39;0.10;;;0.10;;
12127;SDS011;6127;57.702;11.904;2023-05-10T16:10:07;0.20;;;0.20;;
12127;SDS011;6127;57.702;11.904;2023-05-10T16:12:33;0.20;;;0.20;;
12127;SDS011;6127;57.702;11.904;2023-05-10T16:15:00;0.10;;;0.10;;
12127;SDS011;6127;57.702;11.904;2023-05-10T16:17:26;0.20;;;0.20;;
12127;SDS011;6127;57.702;11.904;2023-05-10T16:19:52;0.10;;;0.10;;
12127;SDS011;6127;57.702;11.904;2023-05-10T16:22:18;0.20;;;0.20;;
12127;SDS011;6127;57.702;11.904;2023-05-10T16:24:46;0.10;;;0.10;;
12127;SDS011;6127;57.702;11.904;2023-05-10T16:27:12;0.10;;;0.10;;
12127;SDS011;6127;57.702;11.904;2023-05-10T16:29:38;0.20;;;0.20;;
12127;SDS011;6127;57.702;11.904;2023-05-10T16:34:47;0.20;;;0.20;;
12127;SDS011;6127;57.702;11.904;2023-05-10T16:37:14;0.10;;;0.10;;
12127;SDS011;6127;57.702;11.904;2023-05-10T16:39:40;0.10;;;0.10;;
12127;SDS011;6127;57.702;11.904;2023-05-10T16:42:06;0.10;;;0.10;;
12127;SDS011;6127;57.702;11.904;2023-05-10T16:44:32;0.10;;;0.10;;
12127;SDS011;6127;57.702;11.904;2023-05-10T16:46:58;0.20;;;0.20;;
12127;SDS011;6127;57.702;11.904;2023-05-10T16:49:24;0.10;;;0.10;;
12127;SDS011;6127;57.702;11.904;2023-05-10T16:51:50;0.20;;;0.20;;
12127;SDS011;6127;57.702;11.904;2023-05-10T16:54:16;0.10;;;0.10;;
12127;SDS011;6127;57.702;11.904;2023-05-10T16:56:42;0.10;;;0.10;;
12127;SDS011;6127;57.702;11.904;2023-05-10T16:59:08;0.15;;;0.15;;
12127;SDS011;6127;57.702;11.904;2023-05-10T17:01:34;0.10;;;0.10;;
12127;SDS011;6127;57.702;11.904;2023-05-10T17:04:01;0.10;;;0.10;;
12127;SDS011;6127;57.702;11.904;2023-05-10T17:06:27;0.13;;;0.13;;
12127;SDS011;6127;57.702;11.904;2023-05-10T17:08:53;0.20;;;0.20;;
12127;SDS011;6127;57.702;11.904;2023-05-10T17:11:19;0.10;;;0.10;;
12127;SDS011;6127;57.702;11.904;2023-05-10T17:13:46;0.10;;;0.10;;
12127;SDS011;6127;57.702;11.904;2023-05-10T17:16:12;0.20;;;0.20;;
12127;SDS011;6127;57.702;11.904;2023-05-10T17:18:38;0.00;;;0.00;;
12127;SDS011;6127;57.702;11.904;2023-05-10T17:21:05;0.10;;;0.10;;
12127;SDS011;6127;57.702;11.904;2023-05-10T17:23:32;0.10;;;0.10;;
12127;SDS011;6127;57.702;11.904;2023-05-10T17:25:58;0.20;;;0.20;;
12127;SDS011;6127;57.702;11.904;2023-05-10T17:28:24;0.10;;;0.10;;
12127;SDS011;6127;57.702;11.904;2023-05-10T17:30:56;0.10;;;0.10;;
12127;SDS011;6127;57.702;11.904;2023-05-10T17:33:22;0.10;;;0.10;;
12127;SDS011;6127;57.702;11.904;2023-05-10T17:35:48;0.10;;;0.10;;
12127;SDS011;6127;57.702;11.904;2023-05-10T17:38:14;0.20;;;0.20;;
12127;SDS011;6127;57.702;11.904;2023-05-10T17:40:40;0.10;;;0.10;;
12127;SDS011;6127;57.702;11.904;2023-05-10T17:43:07;0.10;;;0.10;;
12127;SDS011;6127;57.702;11.904;2023-05-10T17:45:33;0.10;;;0.10;;
12127;SDS011;6127;57.702;11.904;2023-05-10T17:47:59;0.17;;;0.17;;
12127;SDS011;6127;57.702;11.904;2023-05-10T17:50:25;0.20;;;0.20;;
12127;SDS011;6127;57.702;11.904;2023-05-10T17:52:51;0.20;;;0.20;;
12127;SDS011;6127;57.702;11.904;2023-05-10T17:55:17;0.30;;;0.30;;